Aérodrome :
LOGIN :

S'inscrire | Disclaimer

   EN    FR    IT 

 










Légende :    VFR   VFR Marginal   IFR   IFR Intensif   IFR Très Intensif
Visi : 
Plafond : 
>= 8 km
>= 3000ft
5 à 8 km
1000 à 3000 ft
1500m à 5 km
500 à 1000 ft
800 à 1500m
200 à 500 ft
< 800m
< 200 ft
Symboles :   Orages  Brouillard  Fortes neiges  Fortes précipitations  Vent > 20 kt
SIGMETs :   Divers  Orages  Givrage  Turbulence  Onde Orograph.  Cendres Volcan.






- Altitude de l'aérodrome : 63 ft
- Code IATA : BZM


EHWO - Woensdrecht Airbase

METARs EXPIRÉS :
  • 090515Z AUTO VRB01KT 4500 BR SCT004 OVC005 00/00 Q1006 YLO
  • 091855Z AUTO 22003KT 200V260 0200 FZFG VV000 M01/M01 Q1007 RED
  • 091825Z AUTO 22003KT 0200 FZFG VV000 M01/M01 Q1007 RED
  • 091755Z AUTO 24003KT 0200 FZFG VV000 M01/M01 Q1006 RED
  • 091725Z AUTO 23003KT 0150 FZFG VV000 M01/M01 Q1006 RED
  • 091655Z AUTO 32001KT 0300 FZFG NCD M02/M02 Q1006 RED
  • 091646Z AUTO 34001KT 0350 FZFG NCD M01/M01 Q1006 RED
  • 091641Z AUTO 00000KT 1400 BR NCD M01/M02 Q1006 AMB
  • 091619Z AUTO 00000KT 0550 FZFG NCD M01/M02 Q1006 RED

TAF COR TAF EHWO
Valide du 09 à 10h jusqu'au 09 à 22h UTC


090951Z 0910/0922 VRB02KT 0600 FZFG FEW008
BECMG 0910/0913 6000 NSW BKN010
TEMPO 0910/0912 3000 BR BKN008
PROB40 0913/0916 3000 BR
PROB30 0912/0922 BKN016
BECMG 0916/0919 3000 BR
PROB40 0920/0922 0800 FZFG



MET'MAP, la Météo Aéronautique d'un coup d'oeil ! - Copyright ORBIFLY Décembre 2007 - Disclaimer

ORBIFLY MET'MAP TEAM :

Programmation & Développement : Alexandra Zaïnal
Sur une idée originale de : Baudouin d'Aumeries
Soutien technique & logistique : Manuel Goepfert
Assistance : Marc-Olivier Méhu




SOURCES & CREDITS :

   NOAA